Terminal Aerodrome Forecast
Issued by NWS Missoula, MT

Home | Current Version | Previous Version | Text Only | Print | Product List | Glossary On
Versions: 1 2 3 4 5 6 7 8 9 10 11 12 13 14 15 16
000
FTUS45 KMSO 260528
TAFBTM
TAF
KBTM 260528Z 2606/2706 VRB05KT 5SM -SHRASN BKN030 OVC040
     FM260800 02007KT 3SM -SN BR BKN020 OVC030
     FM260900 02008KT 2SM -SN BR OVC010
     FM261600 02006KT 3SM -SN BR OVC020
     FM261900 33007KT 6SM -SHSNRA BR BKN030=

USA.gov is the U.S. government's official web portal to all federal, state and local government web resources and services.